Kezdőlap
METAR-TAF:

METAR-TAF

Repülőterek :

Eureka, Nunavut, Kanada

földrajzi szélesség: 79-59N, földrajzi hosszúság: 085-56W, magasság: 10 m

Jelenlegi meteorológiai megfigyelések

A jelentés 58 perccel ezelõtt készült, 06:00 UTC
Szélcsend
Hőmérséklet -7°C
Páratartalom 79%
Légköri nyomás 1033 hPa
Látótávolság: 24.1 km
Derült ég

METAR: CWEU 220600Z 00000KT 15SM SKC M07/M10 A3051 RMK SLP335

Idő: 01:58 (06:58 UTC)


TAF: hiányzik

Meteorológiai megfigyelések és előrejelzések több, mint 4000 repülőtéren (METAR és TAF jelentéseket).

A térképen piros és sárga pontok jelzik az elérhető meteorológiai állomásokat.

Mozgassa az egeret a pont fölött, hogy megjelenjen az állomás neve.

Azután kattintson az időjárási megfigyelések és előrejelzések megtekintéséhez.

A térkép megváltoztatása: kattintson a fekete keresztel jelölt zöld gombra ráközelítéshez, a vonallal jelölt zöld gombra távolításhoz, vagy a zöld nyilakra a szomszédos térképek eléréséhez.


METAR-TAF: